sensor_id;sensor_type;location;lat;lon;timestamp;temperature;humidity
27940;DHT22;15275;51.716;14.324;2023-07-29T00:00:53;23.80;69.90
27940;DHT22;15275;51.716;14.324;2023-07-29T00:03:18;23.80;70.10
27940;DHT22;15275;51.716;14.324;2023-07-29T00:05:44;23.70;70.10
27940;DHT22;15275;51.716;14.324;2023-07-29T00:08:12;23.70;70.20
27940;DHT22;15275;51.716;14.324;2023-07-29T00:10:38;23.60;70.30
27940;DHT22;15275;51.716;14.324;2023-07-29T00:13:05;23.60;70.20
27940;DHT22;15275;51.716;14.324;2023-07-29T00:15:33;23.60;70.30
27940;DHT22;15275;51.716;14.324;2023-07-29T00:17:59;23.50;70.30
27940;DHT22;15275;51.716;14.324;2023-07-29T00:20:25;23.50;70.40
27940;DHT22;15275;51.716;14.324;2023-07-29T00:22:51;23.50;70.50
27940;DHT22;15275;51.716;14.324;2023-07-29T00:25:19;23.40;70.50
27940;DHT22;15275;51.716;14.324;2023-07-29T00:27:45;23.40;70.40
27940;DHT22;15275;51.716;14.324;2023-07-29T00:30:11;23.40;70.50
27940;DHT22;15275;51.716;14.324;2023-07-29T00:32:37;23.30;70.60
27940;DHT22;15275;51.716;14.324;2023-07-29T00:35:03;23.30;70.60
27940;DHT22;15275;51.716;14.324;2023-07-29T00:37:30;23.30;70.70
27940;DHT22;15275;51.716;14.324;2023-07-29T00:39:56;23.20;70.80
27940;DHT22;15275;51.716;14.324;2023-07-29T00:42:23;23.20;70.90
27940;DHT22;15275;51.716;14.324;2023-07-29T00:44:49;23.20;71.10
27940;DHT22;15275;51.716;14.324;2023-07-29T00:47:16;23.20;71.10
27940;DHT22;15275;51.716;14.324;2023-07-29T00:49:45;23.10;71.20
27940;DHT22;15275;51.716;14.324;2023-07-29T00:52:11;23.10;71.40
27940;DHT22;15275;51.716;14.324;2023-07-29T00:54:41;23.10;71.20
27940;DHT22;15275;51.716;14.324;2023-07-29T00:57:09;23.10;71.40
27940;DHT22;15275;51.716;14.324;2023-07-29T00:59:36;23.10;71.20
27940;DHT22;15275;51.716;14.324;2023-07-29T01:02:02;23.00;71.30
27940;DHT22;15275;51.716;14.324;2023-07-29T01:04:28;23.00;71.30
27940;DHT22;15275;51.716;14.324;2023-07-29T01:09:43;23.00;71.70
27940;DHT22;15275;51.716;14.324;2023-07-29T01:15:16;22.90;71.20
27940;DHT22;15275;51.716;14.324;2023-07-29T01:17:52;22.90;71.60
27940;DHT22;15275;51.716;14.324;2023-07-29T01:20:22;22.90;71.30
27940;DHT22;15275;51.716;14.324;2023-07-29T01:22:50;22.80;71.20
27940;DHT22;15275;51.716;14.324;2023-07-29T01:25:16;22.80;71.20
27940;DHT22;15275;51.716;14.324;2023-07-29T01:27:44;22.70;71.30
27940;DHT22;15275;51.716;14.324;2023-07-29T01:30:11;22.70;71.30
27940;DHT22;15275;51.716;14.324;2023-07-29T01:32:54;22.70;71.30
27940;DHT22;15275;51.716;14.324;2023-07-29T01:38:03;22.60;71.50
27940;DHT22;15275;51.716;14.324;2023-07-29T01:40:31;22.60;71.40
27940;DHT22;15275;51.716;14.324;2023-07-29T01:42:57;22.60;71.10
27940;DHT22;15275;51.716;14.324;2023-07-29T01:45:24;22.60;71.30
27940;DHT22;15275;51.716;14.324;2023-07-29T01:47:53;22.60;71.60
27940;DHT22;15275;51.716;14.324;2023-07-29T01:50:19;22.50;71.70
27940;DHT22;15275;51.716;14.324;2023-07-29T01:52:44;22.50;71.80
27940;DHT22;15275;51.716;14.324;2023-07-29T01:55:10;22.50;71.90
27940;DHT22;15275;51.716;14.324;2023-07-29T01:57:36;22.40;72.20
27940;DHT22;15275;51.716;14.324;2023-07-29T02:00:02;22.40;72.20
27940;DHT22;15275;51.716;14.324;2023-07-29T02:02:29;22.40;72.20
27940;DHT22;15275;51.716;14.324;2023-07-29T02:04:55;22.40;72.30
27940;DHT22;15275;51.716;14.324;2023-07-29T02:07:21;22.40;72.30
27940;DHT22;15275;51.716;14.324;2023-07-29T02:09:47;22.40;72.40
27940;DHT22;15275;51.716;14.324;2023-07-29T02:12:13;22.40;72.40
27940;DHT22;15275;51.716;14.324;2023-07-29T02:14:39;22.40;72.30
27940;DHT22;15275;51.716;14.324;2023-07-29T02:17:05;22.40;72.20
27940;DHT22;15275;51.716;14.324;2023-07-29T02:19:30;22.30;72.40
27940;DHT22;15275;51.716;14.324;2023-07-29T02:21:56;22.30;72.40
27940;DHT22;15275;51.716;14.324;2023-07-29T02:24:22;22.30;72.30
27940;DHT22;15275;51.716;14.324;2023-07-29T02:26:48;22.30;72.40
27940;DHT22;15275;51.716;14.324;2023-07-29T02:29:13;22.30;72.40
27940;DHT22;15275;51.716;14.324;2023-07-29T02:31:39;22.30;72.40
27940;DHT22;15275;51.716;14.324;2023-07-29T02:34:05;22.30;72.30
27940;DHT22;15275;51.716;14.324;2023-07-29T02:36:31;22.30;72.20
27940;DHT22;15275;51.716;14.324;2023-07-29T02:38:56;22.20;72.30
27940;DHT22;15275;51.716;14.324;2023-07-29T02:41:22;22.20;72.30
27940;DHT22;15275;51.716;14.324;2023-07-29T02:43:49;22.20;72.30
27940;DHT22;15275;51.716;14.324;2023-07-29T02:46:15;22.20;72.30
27940;DHT22;15275;51.716;14.324;2023-07-29T02:48:42;22.20;72.20
27940;DHT22;15275;51.716;14.324;2023-07-29T02:51:09;22.20;72.30
27940;DHT22;15275;51.716;14.324;2023-07-29T02:53:35;22.10;72.30
27940;DHT22;15275;51.716;14.324;2023-07-29T02:56:05;22.10;72.40
27940;DHT22;15275;51.716;14.324;2023-07-29T02:58:35;22.10;72.40
27940;DHT22;15275;51.716;14.324;2023-07-29T03:01:03;22.10;72.40
27940;DHT22;15275;51.716;14.324;2023-07-29T03:03:30;22.10;72.60
27940;DHT22;15275;51.716;14.324;2023-07-29T03:06:05;22.00;72.80
27940;DHT22;15275;51.716;14.324;2023-07-29T03:08:35;22.10;73.50
27940;DHT22;15275;51.716;14.324;2023-07-29T03:11:13;22.10;73.30
27940;DHT22;15275;51.716;14.324;2023-07-29T03:13:40;22.20;73.90
27940;DHT22;15275;51.716;14.324;2023-07-29T03:16:14;22.20;73.30
27940;DHT22;15275;51.716;14.324;2023-07-29T03:18:42;22.20;73.70
27940;DHT22;15275;51.716;14.324;2023-07-29T03:21:09;22.20;73.30
27940;DHT22;15275;51.716;14.324;2023-07-29T03:23:36;22.20;73.30
27940;DHT22;15275;51.716;14.324;2023-07-29T03:26:03;22.30;73.30
27940;DHT22;15275;51.716;14.324;2023-07-29T03:28:37;22.30;73.30
27940;DHT22;15275;51.716;14.324;2023-07-29T03:31:04;22.30;73.20
27940;DHT22;15275;51.716;14.324;2023-07-29T03:33:30;22.30;73.10
27940;DHT22;15275;51.716;14.324;2023-07-29T03:35:56;22.30;73.10
27940;DHT22;15275;51.716;14.324;2023-07-29T03:38:22;22.30;73.10
27940;DHT22;15275;51.716;14.324;2023-07-29T03:40:48;22.30;73.10
27940;DHT22;15275;51.716;14.324;2023-07-29T03:43:14;22.30;73.00
27940;DHT22;15275;51.716;14.324;2023-07-29T03:45:40;22.30;73.10
27940;DHT22;15275;51.716;14.324;2023-07-29T03:48:06;22.30;73.10
27940;DHT22;15275;51.716;14.324;2023-07-29T03:50:34;22.30;73.10
27940;DHT22;15275;51.716;14.324;2023-07-29T03:53:01;22.30;73.10
27940;DHT22;15275;51.716;14.324;2023-07-29T03:55:28;22.30;73.10
27940;DHT22;15275;51.716;14.324;2023-07-29T03:57:59;22.40;73.10
27940;DHT22;15275;51.716;14.324;2023-07-29T04:00:25;22.40;73.00
27940;DHT22;15275;51.716;14.324;2023-07-29T04:02:51;22.40;73.10
27940;DHT22;15275;51.716;14.324;2023-07-29T04:05:17;22.40;73.10
27940;DHT22;15275;51.716;14.324;2023-07-29T04:07:43;22.40;73.20
27940;DHT22;15275;51.716;14.324;2023-07-29T04:10:10;22.50;73.20
27940;DHT22;15275;51.716;14.324;2023-07-29T04:12:36;22.50;73.30
27940;DHT22;15275;51.716;14.324;2023-07-29T04:15:02;22.60;73.30
27940;DHT22;15275;51.716;14.324;2023-07-29T04:17:29;22.60;73.30
27940;DHT22;15275;51.716;14.324;2023-07-29T04:19:55;22.70;73.20
27940;DHT22;15275;51.716;14.324;2023-07-29T04:22:20;22.70;73.20
27940;DHT22;15275;51.716;14.324;2023-07-29T04:24:46;22.80;73.30
27940;DHT22;15275;51.716;14.324;2023-07-29T04:27:12;22.90;73.40
27940;DHT22;15275;51.716;14.324;2023-07-29T04:29:38;23.00;73.50
27940;DHT22;15275;51.716;14.324;2023-07-29T04:32:04;23.10;73.60
27940;DHT22;15275;51.716;14.324;2023-07-29T04:34:30;23.10;73.60
27940;DHT22;15275;51.716;14.324;2023-07-29T04:36:56;23.20;73.70
27940;DHT22;15275;51.716;14.324;2023-07-29T04:39:23;23.30;73.70
27940;DHT22;15275;51.716;14.324;2023-07-29T04:41:48;23.40;73.70
27940;DHT22;15275;51.716;14.324;2023-07-29T04:44:14;23.50;73.70
27940;DHT22;15275;51.716;14.324;2023-07-29T04:46:40;23.60;73.70
27940;DHT22;15275;51.716;14.324;2023-07-29T04:49:06;23.60;73.60
27940;DHT22;15275;51.716;14.324;2023-07-29T04:51:32;23.70;73.60
27940;DHT22;15275;51.716;14.324;2023-07-29T04:53:58;23.80;73.40
27940;DHT22;15275;51.716;14.324;2023-07-29T04:56:24;23.80;73.40
27940;DHT22;15275;51.716;14.324;2023-07-29T04:58:50;23.90;73.30
27940;DHT22;15275;51.716;14.324;2023-07-29T05:01:16;23.90;73.20
27940;DHT22;15275;51.716;14.324;2023-07-29T05:03:42;24.00;73.10
27940;DHT22;15275;51.716;14.324;2023-07-29T05:06:08;24.10;73.10
27940;DHT22;15275;51.716;14.324;2023-07-29T05:08:33;24.10;73.10
27940;DHT22;15275;51.716;14.324;2023-07-29T05:11:00;24.20;73.00
27940;DHT22;15275;51.716;14.324;2023-07-29T05:13:25;24.30;72.90
27940;DHT22;15275;51.716;14.324;2023-07-29T05:15:51;24.30;72.80
27940;DHT22;15275;51.716;14.324;2023-07-29T05:18:17;24.40;72.80
27940;DHT22;15275;51.716;14.324;2023-07-29T05:20:43;24.40;72.70
27940;DHT22;15275;51.716;14.324;2023-07-29T05:23:09;24.50;72.50
27940;DHT22;15275;51.716;14.324;2023-07-29T05:25:35;24.50;72.50
27940;DHT22;15275;51.716;14.324;2023-07-29T05:28:01;24.60;72.40
27940;DHT22;15275;51.716;14.324;2023-07-29T05:30:28;24.60;72.40
27940;DHT22;15275;51.716;14.324;2023-07-29T05:32:57;24.70;72.20
27940;DHT22;15275;51.716;14.324;2023-07-29T05:35:23;24.80;72.10
27940;DHT22;15275;51.716;14.324;2023-07-29T05:37:50;24.80;72.00
27940;DHT22;15275;51.716;14.324;2023-07-29T05:40:16;24.80;71.80
27940;DHT22;15275;51.716;14.324;2023-07-29T05:42:42;24.80;71.80
27940;DHT22;15275;51.716;14.324;2023-07-29T05:45:09;24.80;71.80
27940;DHT22;15275;51.716;14.324;2023-07-29T05:47:36;24.80;71.90
27940;DHT22;15275;51.716;14.324;2023-07-29T05:50:02;24.80;72.00
27940;DHT22;15275;51.716;14.324;2023-07-29T05:52:30;24.90;71.90
27940;DHT22;15275;51.716;14.324;2023-07-29T05:54:56;24.90;72.00
27940;DHT22;15275;51.716;14.324;2023-07-29T05:57:22;25.00;72.10
27940;DHT22;15275;51.716;14.324;2023-07-29T05:59:48;25.10;72.00
27940;DHT22;15275;51.716;14.324;2023-07-29T06:02:14;25.20;72.00
27940;DHT22;15275;51.716;14.324;2023-07-29T06:04:40;25.30;71.80
27940;DHT22;15275;51.716;14.324;2023-07-29T06:07:06;25.40;71.50
27940;DHT22;15275;51.716;14.324;2023-07-29T06:09:32;25.50;71.30
27940;DHT22;15275;51.716;14.324;2023-07-29T06:11:57;25.60;71.10
27940;DHT22;15275;51.716;14.324;2023-07-29T06:14:23;25.60;70.90
27940;DHT22;15275;51.716;14.324;2023-07-29T06:16:49;25.70;70.80
27940;DHT22;15275;51.716;14.324;2023-07-29T06:19:15;25.80;70.70
27940;DHT22;15275;51.716;14.324;2023-07-29T06:21:41;25.90;70.80
27940;DHT22;15275;51.716;14.324;2023-07-29T06:24:07;25.90;70.60
27940;DHT22;15275;51.716;14.324;2023-07-29T06:26:33;26.00;70.40
27940;DHT22;15275;51.716;14.324;2023-07-29T06:28:59;26.10;70.10
27940;DHT22;15275;51.716;14.324;2023-07-29T06:31:24;26.20;70.00
27940;DHT22;15275;51.716;14.324;2023-07-29T06:33:50;26.20;69.80
27940;DHT22;15275;51.716;14.324;2023-07-29T06:36:16;26.30;69.70
27940;DHT22;15275;51.716;14.324;2023-07-29T06:38:42;26.30;69.60
27940;DHT22;15275;51.716;14.324;2023-07-29T06:41:08;26.40;69.50
27940;DHT22;15275;51.716;14.324;2023-07-29T06:43:34;26.50;69.40
27940;DHT22;15275;51.716;14.324;2023-07-29T06:45:59;26.50;69.20
27940;DHT22;15275;51.716;14.324;2023-07-29T06:48:25;26.60;69.00
27940;DHT22;15275;51.716;14.324;2023-07-29T06:50:51;26.70;68.70
27940;DHT22;15275;51.716;14.324;2023-07-29T06:53:17;26.70;68.50
27940;DHT22;15275;51.716;14.324;2023-07-29T06:55:44;26.80;68.30
27940;DHT22;15275;51.716;14.324;2023-07-29T06:58:10;26.90;68.20
27940;DHT22;15275;51.716;14.324;2023-07-29T07:00:36;26.90;68.10
27940;DHT22;15275;51.716;14.324;2023-07-29T07:03:01;27.00;68.00
27940;DHT22;15275;51.716;14.324;2023-07-29T07:05:27;27.00;67.90
27940;DHT22;15275;51.716;14.324;2023-07-29T07:07:53;27.10;67.50
27940;DHT22;15275;51.716;14.324;2023-07-29T07:10:19;27.20;67.70
27940;DHT22;15275;51.716;14.324;2023-07-29T07:12:45;27.30;67.90
27940;DHT22;15275;51.716;14.324;2023-07-29T07:15:11;27.50;67.40
27940;DHT22;15275;51.716;14.324;2023-07-29T07:17:37;27.60;66.90
27940;DHT22;15275;51.716;14.324;2023-07-29T07:20:03;27.70;66.50
27940;DHT22;15275;51.716;14.324;2023-07-29T07:22:29;27.90;66.20
27940;DHT22;15275;51.716;14.324;2023-07-29T07:24:55;28.00;66.10
27940;DHT22;15275;51.716;14.324;2023-07-29T07:27:21;28.10;65.90
27940;DHT22;15275;51.716;14.324;2023-07-29T07:29:46;28.20;65.60
27940;DHT22;15275;51.716;14.324;2023-07-29T07:32:12;28.30;65.30
27940;DHT22;15275;51.716;14.324;2023-07-29T07:34:38;28.40;64.80
27940;DHT22;15275;51.716;14.324;2023-07-29T07:37:04;28.50;64.70
27940;DHT22;15275;51.716;14.324;2023-07-29T07:39:31;28.60;64.40
27940;DHT22;15275;51.716;14.324;2023-07-29T07:41:57;28.70;64.20
27940;DHT22;15275;51.716;14.324;2023-07-29T07:44:23;28.70;64.20
27940;DHT22;15275;51.716;14.324;2023-07-29T07:46:52;28.80;63.90
27940;DHT22;15275;51.716;14.324;2023-07-29T07:49:18;29.00;63.70
27940;DHT22;15275;51.716;14.324;2023-07-29T07:51:44;29.00;63.70
27940;DHT22;15275;51.716;14.324;2023-07-29T07:54:10;29.10;63.50
27940;DHT22;15275;51.716;14.324;2023-07-29T07:56:36;29.20;63.20
27940;DHT22;15275;51.716;14.324;2023-07-29T07:59:03;29.30;63.20
27940;DHT22;15275;51.716;14.324;2023-07-29T08:01:39;29.50;63.10
27940;DHT22;15275;51.716;14.324;2023-07-29T08:04:05;29.60;62.20
27940;DHT22;15275;51.716;14.324;2023-07-29T08:06:32;29.80;62.50
27940;DHT22;15275;51.716;14.324;2023-07-29T08:08:58;29.80;62.10
27940;DHT22;15275;51.716;14.324;2023-07-29T08:11:25;29.90;61.60
27940;DHT22;15275;51.716;14.324;2023-07-29T08:13:51;29.90;61.40
27940;DHT22;15275;51.716;14.324;2023-07-29T08:16:17;30.00;61.10
27940;DHT22;15275;51.716;14.324;2023-07-29T08:18:43;29.90;60.90
27940;DHT22;15275;51.716;14.324;2023-07-29T08:21:09;30.00;60.80
27940;DHT22;15275;51.716;14.324;2023-07-29T08:23:35;29.90;60.30
27940;DHT22;15275;51.716;14.324;2023-07-29T08:26:04;29.90;60.00
27940;DHT22;15275;51.716;14.324;2023-07-29T08:28:33;29.90;60.20
27940;DHT22;15275;51.716;14.324;2023-07-29T08:31:03;29.80;60.10
27940;DHT22;15275;51.716;14.324;2023-07-29T08:33:30;29.80;59.80
27940;DHT22;15275;51.716;14.324;2023-07-29T08:35:57;29.80;60.30
27940;DHT22;15275;51.716;14.324;2023-07-29T08:38:24;29.70;60.00
27940;DHT22;15275;51.716;14.324;2023-07-29T08:41:14;29.70;60.20
27940;DHT22;15275;51.716;14.324;2023-07-29T08:46:42;29.70;60.10
27940;DHT22;15275;51.716;14.324;2023-07-29T08:49:08;29.60;60.20
27940;DHT22;15275;51.716;14.324;2023-07-29T08:51:37;29.70;60.20
27940;DHT22;15275;51.716;14.324;2023-07-29T08:54:03;29.70;60.10
27940;DHT22;15275;51.716;14.324;2023-07-29T08:56:30;29.70;60.10
27940;DHT22;15275;51.716;14.324;2023-07-29T08:58:56;29.80;59.50
27940;DHT22;15275;51.716;14.324;2023-07-29T09:01:22;29.80;59.30
27940;DHT22;15275;51.716;14.324;2023-07-29T09:03:48;29.90;59.60
27940;DHT22;15275;51.716;14.324;2023-07-29T09:06:14;30.00;59.50
27940;DHT22;15275;51.716;14.324;2023-07-29T09:08:41;30.20;58.90
27940;DHT22;15275;51.716;14.324;2023-07-29T09:11:08;30.30;58.60
27940;DHT22;15275;51.716;14.324;2023-07-29T09:13:34;30.30;58.10
27940;DHT22;15275;51.716;14.324;2023-07-29T09:16:00;30.40;57.80
27940;DHT22;15275;51.716;14.324;2023-07-29T09:18:27;30.40;58.10
27940;DHT22;15275;51.716;14.324;2023-07-29T09:20:53;30.50;57.50
27940;DHT22;15275;51.716;14.324;2023-07-29T09:23:19;30.50;57.70
27940;DHT22;15275;51.716;14.324;2023-07-29T09:25:48;30.50;57.90
27940;DHT22;15275;51.716;14.324;2023-07-29T09:28:16;30.50;57.20
27940;DHT22;15275;51.716;14.324;2023-07-29T09:30:46;30.60;56.90
27940;DHT22;15275;51.716;14.324;2023-07-29T09:33:12;30.60;57.20
27940;DHT22;15275;51.716;14.324;2023-07-29T09:35:38;30.70;57.50
27940;DHT22;15275;51.716;14.324;2023-07-29T09:38:05;30.80;57.40
27940;DHT22;15275;51.716;14.324;2023-07-29T09:40:36;30.90;57.00
27940;DHT22;15275;51.716;14.324;2023-07-29T09:43:03;31.10;56.60
27940;DHT22;15275;51.716;14.324;2023-07-29T09:45:31;31.20;56.70
27940;DHT22;15275;51.716;14.324;2023-07-29T09:47:59;31.40;56.20
27940;DHT22;15275;51.716;14.324;2023-07-29T09:50:25;31.50;55.90
27940;DHT22;15275;51.716;14.324;2023-07-29T09:52:53;31.60;55.50
27940;DHT22;15275;51.716;14.324;2023-07-29T09:55:21;31.80;55.20
27940;DHT22;15275;51.716;14.324;2023-07-29T09:57:53;31.90;54.60
27940;DHT22;15275;51.716;14.324;2023-07-29T10:00:25;31.90;54.20
27940;DHT22;15275;51.716;14.324;2023-07-29T10:02:53;32.00;54.50
27940;DHT22;15275;51.716;14.324;2023-07-29T10:05:21;32.00;54.60
27940;DHT22;15275;51.716;14.324;2023-07-29T10:07:49;32.10;54.40
27940;DHT22;15275;51.716;14.324;2023-07-29T10:10:16;32.10;54.10
27940;DHT22;15275;51.716;14.324;2023-07-29T10:12:42;32.20;53.70
27940;DHT22;15275;51.716;14.324;2023-07-29T10:15:08;32.20;53.70
27940;DHT22;15275;51.716;14.324;2023-07-29T10:17:36;32.30;53.30
27940;DHT22;15275;51.716;14.324;2023-07-29T10:20:04;32.30;53.20
27940;DHT22;15275;51.716;14.324;2023-07-29T10:22:40;32.30;53.10
27940;DHT22;15275;51.716;14.324;2023-07-29T10:25:09;32.30;52.40
27940;DHT22;15275;51.716;14.324;2023-07-29T10:27:43;32.30;52.90
27940;DHT22;15275;51.716;14.324;2023-07-29T10:30:24;32.30;53.10
27940;DHT22;15275;51.716;14.324;2023-07-29T10:32:52;32.30;52.70
27940;DHT22;15275;51.716;14.324;2023-07-29T10:35:18;32.40;52.60
27940;DHT22;15275;51.716;14.324;2023-07-29T10:37:44;32.40;53.00
27940;DHT22;15275;51.716;14.324;2023-07-29T10:40:11;32.40;53.00
27940;DHT22;15275;51.716;14.324;2023-07-29T10:42:38;32.50;53.20
27940;DHT22;15275;51.716;14.324;2023-07-29T10:45:40;32.50;53.50
27940;DHT22;15275;51.716;14.324;2023-07-29T10:48:10;32.60;52.80
27940;DHT22;15275;51.716;14.324;2023-07-29T10:50:37;32.70;52.50
27940;DHT22;15275;51.716;14.324;2023-07-29T10:53:03;32.70;52.30
27940;DHT22;15275;51.716;14.324;2023-07-29T10:55:34;32.70;52.30
27940;DHT22;15275;51.716;14.324;2023-07-29T10:58:22;32.70;51.80
27940;DHT22;15275;51.716;14.324;2023-07-29T11:00:49;32.80;51.60
27940;DHT22;15275;51.716;14.324;2023-07-29T11:03:15;32.80;51.70
27940;DHT22;15275;51.716;14.324;2023-07-29T11:05:51;32.80;51.60
27940;DHT22;15275;51.716;14.324;2023-07-29T11:08:19;32.90;51.00
27940;DHT22;15275;51.716;14.324;2023-07-29T11:11:07;32.90;51.40
27940;DHT22;15275;51.716;14.324;2023-07-29T11:13:35;32.90;50.10
27940;DHT22;15275;51.716;14.324;2023-07-29T11:16:02;32.90;50.80
27940;DHT22;15275;51.716;14.324;2023-07-29T11:18:33;32.80;50.90
27940;DHT22;15275;51.716;14.324;2023-07-29T11:21:01;32.80;51.00
27940;DHT22;15275;51.716;14.324;2023-07-29T11:23:35;32.70;50.90
27940;DHT22;15275;51.716;14.324;2023-07-29T11:26:03;32.70;50.20
27940;DHT22;15275;51.716;14.324;2023-07-29T11:28:29;32.70;50.70
27940;DHT22;15275;51.716;14.324;2023-07-29T11:30:56;32.60;50.80
27940;DHT22;15275;51.716;14.324;2023-07-29T11:33:25;32.60;50.80
27940;DHT22;15275;51.716;14.324;2023-07-29T11:35:52;32.60;50.60
27940;DHT22;15275;51.716;14.324;2023-07-29T11:38:19;32.60;50.70
27940;DHT22;15275;51.716;14.324;2023-07-29T11:41:00;32.60;50.70
27940;DHT22;15275;51.716;14.324;2023-07-29T11:43:28;32.60;49.80
27940;DHT22;15275;51.716;14.324;2023-07-29T11:45:54;32.60;50.40
27940;DHT22;15275;51.716;14.324;2023-07-29T11:48:27;32.70;51.00
27940;DHT22;15275;51.716;14.324;2023-07-29T11:50:54;32.70;50.70
27940;DHT22;15275;51.716;14.324;2023-07-29T11:53:21;32.80;50.10
27940;DHT22;15275;51.716;14.324;2023-07-29T11:55:53;32.80;50.20
27940;DHT22;15275;51.716;14.324;2023-07-29T11:58:20;32.90;49.80
27940;DHT22;15275;51.716;14.324;2023-07-29T12:00:46;32.90;49.80
27940;DHT22;15275;51.716;14.324;2023-07-29T12:03:12;33.00;49.60
27940;DHT22;15275;51.716;14.324;2023-07-29T12:05:39;33.10;49.50
27940;DHT22;15275;51.716;14.324;2023-07-29T12:08:05;33.20;49.20
27940;DHT22;15275;51.716;14.324;2023-07-29T12:10:31;33.20;49.50
27940;DHT22;15275;51.716;14.324;2023-07-29T12:12:57;33.30;49.60
27940;DHT22;15275;51.716;14.324;2023-07-29T12:15:27;33.40;49.60
27940;DHT22;15275;51.716;14.324;2023-07-29T12:17:56;33.50;48.80
27940;DHT22;15275;51.716;14.324;2023-07-29T12:20:23;33.50;48.60
27940;DHT22;15275;51.716;14.324;2023-07-29T12:22:57;33.40;48.90
27940;DHT22;15275;51.716;14.324;2023-07-29T12:25:26;33.40;48.30
27940;DHT22;15275;51.716;14.324;2023-07-29T12:27:52;33.30;49.10
27940;DHT22;15275;51.716;14.324;2023-07-29T12:30:22;33.30;49.20
27940;DHT22;15275;51.716;14.324;2023-07-29T12:32:48;33.20;49.30
27940;DHT22;15275;51.716;14.324;2023-07-29T12:35:14;33.10;49.20
27940;DHT22;15275;51.716;14.324;2023-07-29T12:37:40;33.10;49.60
27940;DHT22;15275;51.716;14.324;2023-07-29T12:40:23;33.20;49.40
27940;DHT22;15275;51.716;14.324;2023-07-29T12:42:50;33.20;48.80
27940;DHT22;15275;51.716;14.324;2023-07-29T12:45:17;33.30;49.00
27940;DHT22;15275;51.716;14.324;2023-07-29T12:47:43;33.30;49.20
27940;DHT22;15275;51.716;14.324;2023-07-29T12:50:09;33.30;49.30
27940;DHT22;15275;51.716;14.324;2023-07-29T12:52:35;33.30;49.00
27940;DHT22;15275;51.716;14.324;2023-07-29T12:55:01;33.20;49.30
27940;DHT22;15275;51.716;14.324;2023-07-29T12:57:27;33.20;49.40
27940;DHT22;15275;51.716;14.324;2023-07-29T12:59:53;33.20;49.40
27940;DHT22;15275;51.716;14.324;2023-07-29T13:02:18;33.20;49.30
27940;DHT22;15275;51.716;14.324;2023-07-29T13:04:44;33.20;49.80
27940;DHT22;15275;51.716;14.324;2023-07-29T13:07:10;33.10;49.60
27940;DHT22;15275;51.716;14.324;2023-07-29T13:09:36;33.10;49.50
27940;DHT22;15275;51.716;14.324;2023-07-29T13:12:02;33.10;49.40
27940;DHT22;15275;51.716;14.324;2023-07-29T13:14:28;33.10;49.50
27940;DHT22;15275;51.716;14.324;2023-07-29T13:16:54;33.00;49.50
27940;DHT22;15275;51.716;14.324;2023-07-29T13:19:19;33.00;49.40
27940;DHT22;15275;51.716;14.324;2023-07-29T13:21:45;33.00;49.30
27940;DHT22;15275;51.716;14.324;2023-07-29T13:24:11;32.90;49.10
27940;DHT22;15275;51.716;14.324;2023-07-29T13:26:37;32.80;49.40
27940;DHT22;15275;51.716;14.324;2023-07-29T13:29:02;32.70;49.60
27940;DHT22;15275;51.716;14.324;2023-07-29T13:31:29;32.60;49.90
27940;DHT22;15275;51.716;14.324;2023-07-29T13:33:56;32.50;50.20
27940;DHT22;15275;51.716;14.324;2023-07-29T13:36:22;32.30;50.40
27940;DHT22;15275;51.716;14.324;2023-07-29T13:38:47;32.20;50.50
27940;DHT22;15275;51.716;14.324;2023-07-29T13:41:13;32.10;50.70
27940;DHT22;15275;51.716;14.324;2023-07-29T13:43:39;32.00;50.60
27940;DHT22;15275;51.716;14.324;2023-07-29T13:46:04;31.90;50.50
27940;DHT22;15275;51.716;14.324;2023-07-29T13:48:30;31.80;51.00
27940;DHT22;15275;51.716;14.324;2023-07-29T13:50:58;31.80;50.50
27940;DHT22;15275;51.716;14.324;2023-07-29T13:53:24;31.80;50.60
27940;DHT22;15275;51.716;14.324;2023-07-29T13:55:51;31.70;50.60
27940;DHT22;15275;51.716;14.324;2023-07-29T13:58:17;31.70;50.60
27940;DHT22;15275;51.716;14.324;2023-07-29T14:00:42;31.70;50.50
27940;DHT22;15275;51.716;14.324;2023-07-29T14:03:08;31.60;50.60
27940;DHT22;15275;51.716;14.324;2023-07-29T14:05:34;31.60;50.50
27940;DHT22;15275;51.716;14.324;2023-07-29T14:08:00;31.50;50.60
27940;DHT22;15275;51.716;14.324;2023-07-29T14:10:26;31.40;50.80
27940;DHT22;15275;51.716;14.324;2023-07-29T14:12:51;31.30;51.20
27940;DHT22;15275;51.716;14.324;2023-07-29T14:15:17;31.10;51.90
27940;DHT22;15275;51.716;14.324;2023-07-29T14:17:43;31.00;52.40
27940;DHT22;15275;51.716;14.324;2023-07-29T14:20:10;30.90;53.10
27940;DHT22;15275;51.716;14.324;2023-07-29T14:22:36;30.70;53.50
27940;DHT22;15275;51.716;14.324;2023-07-29T14:25:02;30.60;53.90
27940;DHT22;15275;51.716;14.324;2023-07-29T14:27:28;30.40;54.20
27940;DHT22;15275;51.716;14.324;2023-07-29T14:29:54;30.30;54.60
27940;DHT22;15275;51.716;14.324;2023-07-29T14:32:19;30.10;54.80
27940;DHT22;15275;51.716;14.324;2023-07-29T14:34:45;30.00;54.90
27940;DHT22;15275;51.716;14.324;2023-07-29T14:37:11;29.80;55.00
27940;DHT22;15275;51.716;14.324;2023-07-29T14:39:37;29.60;54.80
27940;DHT22;15275;51.716;14.324;2023-07-29T14:42:03;29.40;57.10
27940;DHT22;15275;51.716;14.324;2023-07-29T14:44:29;29.10;57.80
27940;DHT22;15275;51.716;14.324;2023-07-29T14:46:55;28.70;62.80
27940;DHT22;15275;51.716;14.324;2023-07-29T14:49:21;28.10;67.40
27940;DHT22;15275;51.716;14.324;2023-07-29T14:51:47;27.50;70.80
27940;DHT22;15275;51.716;14.324;2023-07-29T14:54:13;26.80;75.70
27940;DHT22;15275;51.716;14.324;2023-07-29T14:56:39;26.30;78.10
27940;DHT22;15275;51.716;14.324;2023-07-29T14:59:04;25.90;79.80
27940;DHT22;15275;51.716;14.324;2023-07-29T15:01:31;25.60;81.30
27940;DHT22;15275;51.716;14.324;2023-07-29T15:03:57;25.40;82.80
27940;DHT22;15275;51.716;14.324;2023-07-29T15:06:23;25.20;83.80
27940;DHT22;15275;51.716;14.324;2023-07-29T15:08:48;25.10;84.60
27940;DHT22;15275;51.716;14.324;2023-07-29T15:11:15;25.00;85.10
27940;DHT22;15275;51.716;14.324;2023-07-29T15:13:41;24.90;85.50
27940;DHT22;15275;51.716;14.324;2023-07-29T15:16:06;24.90;85.80
27940;DHT22;15275;51.716;14.324;2023-07-29T15:18:32;24.80;86.10
27940;DHT22;15275;51.716;14.324;2023-07-29T15:20:58;24.80;86.40
27940;DHT22;15275;51.716;14.324;2023-07-29T15:23:27;24.80;86.60
27940;DHT22;15275;51.716;14.324;2023-07-29T15:25:53;24.80;86.70